createdAt,value
2023-02-15T00:01:59.701Z,22.50
2023-02-15T00:07:01.507Z,22.87
2023-02-15T00:12:03.598Z,22.80
2023-02-15T00:17:05.528Z,22.53
2023-02-15T00:22:07.491Z,23.00
2023-02-15T00:27:10.328Z,23.37
2023-02-15T00:32:12.146Z,22.40
2023-02-15T00:37:14.005Z,21.83
2023-02-15T00:42:15.820Z,21.03
2023-02-15T00:47:17.843Z,21.03
2023-02-15T00:52:19.640Z,20.43
2023-02-15T00:57:21.472Z,20.27
2023-02-15T01:02:23.344Z,20.50
2023-02-15T01:07:25.168Z,19.27
2023-02-15T01:12:30.309Z,19.93
2023-02-15T01:17:33.228Z,19.27
2023-02-15T01:22:35.056Z,18.87
2023-02-15T01:27:36.923Z,18.83
2023-02-15T01:32:38.748Z,17.50
2023-02-15T01:37:40.624Z,16.57
2023-02-15T01:42:42.584Z,18.00
2023-02-15T01:48:28.954Z,17.60
2023-02-15T01:53:43.590Z,17.80
2023-02-15T01:58:46.497Z,16.83
2023-02-15T02:04:09.251Z,17.87
2023-02-15T02:09:11.394Z,17.03
2023-02-15T02:14:13.842Z,16.07
2023-02-15T02:19:34.254Z,15.67
2023-02-15T02:24:54.276Z,16.40
2023-02-15T02:30:12.258Z,17.07
2023-02-15T02:35:16.985Z,15.90
2023-02-15T02:40:34.173Z,16.87
2023-02-15T02:45:48.891Z,16.53
2023-02-15T02:50:52.498Z,15.47
2023-02-15T02:55:58.818Z,14.30
2023-02-15T03:01:09.494Z,13.83
2023-02-15T03:06:24.925Z,13.67
2023-02-15T03:11:27.038Z,14.40
2023-02-15T03:16:29.503Z,15.27
2023-02-15T03:21:42.200Z,13.90
2023-02-15T03:26:48.142Z,14.13
2023-02-15T03:31:57.845Z,13.47
2023-02-15T03:37:06.144Z,13.63
2023-02-15T03:42:22.102Z,13.83
2023-02-15T03:47:29.620Z,13.13
2023-02-15T03:52:34.949Z,13.87
2023-02-15T03:57:56.089Z,12.93
2023-02-15T04:03:17.123Z,12.80
2023-02-15T04:08:18.984Z,12.63
2023-02-15T04:13:21.972Z,12.37
2023-02-15T04:18:42.279Z,11.60
2023-02-15T04:24:02.532Z,12.10
2023-02-15T04:29:04.391Z,12.57
2023-02-15T04:34:06.214Z,12.80
2023-02-15T04:39:09.217Z,12.10
2023-02-15T04:44:11.493Z,12.37
2023-02-15T04:49:13.451Z,12.10
2023-02-15T04:54:15.283Z,10.60
2023-02-15T04:59:17.126Z,10.10
2023-02-15T05:04:19.111Z,9.87
2023-02-15T05:09:20.911Z,10.57
2023-02-15T05:14:22.763Z,9.63
2023-02-15T05:19:25.591Z,10.63
2023-02-15T05:24:46.005Z,12.17
2023-02-15T05:29:47.974Z,13.20
2023-02-15T05:34:49.817Z,13.27
2023-02-15T05:39:51.603Z,12.57
2023-02-15T05:44:53.853Z,10.43
2023-02-15T05:49:55.945Z,11.20
2023-02-15T05:54:57.804Z,11.97
2023-02-15T05:59:59.623Z,11.40
2023-02-15T06:05:01.494Z,12.57
2023-02-15T06:10:04.908Z,11.77
2023-02-15T06:15:07.320Z,11.03
2023-02-15T06:20:09.838Z,10.83
2023-02-15T06:25:12.307Z,10.93
2023-02-15T06:30:14.645Z,10.23
2023-02-15T06:35:16.496Z,10.17
2023-02-15T06:40:18.850Z,11.17
2023-02-15T06:45:20.683Z,10.23
2023-02-15T06:50:22.524Z,9.73
2023-02-15T06:55:24.462Z,9.87
2023-02-15T07:00:26.416Z,11.60
2023-02-15T07:05:32.291Z,12.27
2023-02-15T07:10:34.305Z,12.40
2023-02-15T07:15:36.128Z,12.33
2023-02-15T07:20:38.629Z,11.97
2023-02-15T07:25:40.421Z,11.47
2023-02-15T07:30:42.249Z,11.83
2023-02-15T07:35:48.835Z,12.00
2023-02-15T07:40:50.618Z,13.63
2023-02-15T07:45:52.501Z,15.20
2023-02-15T07:50:54.360Z,15.93
2023-02-15T07:56:00.144Z,16.70
2023-02-15T08:01:05.156Z,16.77
2023-02-15T08:06:07.978Z,15.37
2023-02-15T08:11:33.737Z,16.10
2023-02-15T08:16:42.915Z,15.77
2023-02-15T08:21:50.260Z,15.80
2023-02-15T08:26:52.782Z,14.57
2023-02-15T08:31:59.885Z,16.60
2023-02-15T08:37:02.074Z,15.80
2023-02-15T08:42:03.977Z,17.10
2023-02-15T08:47:05.797Z,17.00
2023-02-15T08:52:08.082Z,12.60
2023-02-15T08:57:11.341Z,11.80
2023-02-15T09:02:13.319Z,12.10
2023-02-15T09:07:15.149Z,9.77
2023-02-15T09:12:17.018Z,8.93
2023-02-15T09:17:18.867Z,7.70
2023-02-15T09:22:20.990Z,7.07
2023-02-15T09:27:22.884Z,5.97
2023-02-15T09:32:24.774Z,5.53
2023-02-15T09:37:26.585Z,5.53
2023-02-15T09:42:34.468Z,5.63
2023-02-15T09:48:28.653Z,8.65
2023-02-15T09:53:39.304Z,11.07
2023-02-15T09:58:47.228Z,11.38
2023-02-15T10:03:52.397Z,11.70
2023-02-15T10:09:14.500Z,12.93
2023-02-15T10:14:40.511Z,12.40
2023-02-15T10:20:00.871Z,12.90
2023-02-15T10:25:06.088Z,12.68
2023-02-15T10:30:14.225Z,11.70
2023-02-15T10:35:38.890Z,13.00
2023-02-15T10:41:10.632Z,12.45
2023-02-15T10:46:27.680Z,13.68
2023-02-15T10:51:41.730Z,14.18
2023-02-15T10:57:15.199Z,14.93
2023-02-15T11:03:11.260Z,14.63
2023-02-15T11:08:13.719Z,14.38
2023-02-15T11:13:18.956Z,14.68
2023-02-15T11:18:28.827Z,13.90
2023-02-15T11:23:33.185Z,13.90
2023-02-15T11:28:48.561Z,14.38
2023-02-15T11:34:33.022Z,13.68
2023-02-15T11:39:38.441Z,14.60
2023-02-15T11:44:59.131Z,13.20
2023-02-15T11:50:00.952Z,13.45
2023-02-15T11:55:02.787Z,13.15
2023-02-15T12:00:40.149Z,13.40
2023-02-15T12:05:45.531Z,13.10
2023-02-15T12:10:59.765Z,13.55
2023-02-15T12:16:11.307Z,14.02
2023-02-15T12:21:17.533Z,13.98
2023-02-15T12:26:32.371Z,14.00
2023-02-15T12:31:40.762Z,13.70
2023-02-15T12:36:55.438Z,13.55
2023-02-15T12:42:05.556Z,13.52
2023-02-15T12:47:19.723Z,13.50
2023-02-15T12:52:21.545Z,13.35
2023-02-15T12:57:31.676Z,12.75
2023-02-15T13:02:49.485Z,12.52
2023-02-15T13:07:57.064Z,12.85
2023-02-15T13:12:59.681Z,12.50
2023-02-15T13:18:03.138Z,12.57
2023-02-15T13:23:14.590Z,13.07
2023-02-15T13:28:19.396Z,13.15
2023-02-15T13:33:37.958Z,12.63
2023-02-15T13:39:02.742Z,12.38
2023-02-15T13:44:16.130Z,12.57
2023-02-15T13:49:30.396Z,13.68
2023-02-15T13:54:56.840Z,12.82
2023-02-15T14:00:14.862Z,13.57
2023-02-15T14:05:28.833Z,14.48
2023-02-15T14:11:08.043Z,13.95
2023-02-15T14:16:30.053Z,13.82
2023-02-15T14:21:36.354Z,13.52
2023-02-15T14:26:44.279Z,14.77
2023-02-15T14:31:53.348Z,13.85
2023-02-15T14:36:56.521Z,13.75
2023-02-15T14:42:05.819Z,13.27
2023-02-15T14:47:26.173Z,13.00
2023-02-15T14:52:28.636Z,12.80
2023-02-15T14:57:35.012Z,13.23
2023-02-15T15:02:52.776Z,13.20
2023-02-15T15:08:00.873Z,13.18
2023-02-15T15:13:31.516Z,11.93
2023-02-15T15:18:48.800Z,13.48
2023-02-15T15:23:51.181Z,13.27
2023-02-15T15:28:53.005Z,13.43
2023-02-15T15:34:27.305Z,12.40
2023-02-15T15:39:50.921Z,12.85
2023-02-15T15:45:04.991Z,13.27
2023-02-15T15:50:19.387Z,12.70
2023-02-15T15:55:24.734Z,12.38
2023-02-15T16:00:47.887Z,12.80
2023-02-15T16:05:55.219Z,13.35
2023-02-15T16:10:58.874Z,12.38
2023-02-15T16:16:00.885Z,12.98
2023-02-15T16:21:03.420Z,12.88
2023-02-15T16:26:27.280Z,12.07
2023-02-15T16:31:29.243Z,12.15
2023-02-15T16:36:31.108Z,12.50
2023-02-15T16:41:33.386Z,13.40
2023-02-15T16:46:41.390Z,15.38
2023-02-15T16:51:46.056Z,13.75
2023-02-15T16:56:48.507Z,14.77
2023-02-15T17:01:53.029Z,14.48
2023-02-15T17:07:27.312Z,14.55
2023-02-15T17:12:56.125Z,16.38
2023-02-15T17:18:02.259Z,13.70
2023-02-15T17:23:05.175Z,12.35
2023-02-15T17:28:18.535Z,15.32
2023-02-15T17:33:34.662Z,13.80
2023-02-15T17:38:38.999Z,12.85
2023-02-15T17:43:42.559Z,12.02
2023-02-15T17:48:44.429Z,12.50
2023-02-15T17:54:05.811Z,13.32
2023-02-15T17:59:07.842Z,14.18
2023-02-15T18:04:31.632Z,14.25
2023-02-15T18:09:52.095Z,13.85
2023-02-15T18:14:55.204Z,14.85
2023-02-15T18:19:57.162Z,14.43
2023-02-15T18:24:59.506Z,13.77
2023-02-15T18:30:01.423Z,14.00
2023-02-15T18:35:05.516Z,14.57
2023-02-15T18:40:15.928Z,14.52
2023-02-15T18:45:25.199Z,14.80
2023-02-15T18:50:31.589Z,14.15
2023-02-15T18:55:35.471Z,13.10
2023-02-15T19:00:37.364Z,13.88
2023-02-15T19:05:42.158Z,13.23
2023-02-15T19:10:44.150Z,13.20
2023-02-15T19:15:45.995Z,12.77
2023-02-15T19:20:48.321Z,13.55
2023-02-15T19:25:52.452Z,12.38
2023-02-15T19:30:54.342Z,13.23
2023-02-15T19:35:57.592Z,14.05
2023-02-15T19:41:06.789Z,13.07
2023-02-15T19:46:19.167Z,11.45
2023-02-15T19:51:23.214Z,11.48
2023-02-15T19:56:27.021Z,11.63
2023-02-15T20:01:31.203Z,11.75
2023-02-15T20:06:33.664Z,10.98
2023-02-15T20:11:35.728Z,11.80
2023-02-15T20:16:37.568Z,11.27
2023-02-15T20:21:41.396Z,12.65
2023-02-15T20:26:43.659Z,13.85
2023-02-15T20:31:46.031Z,12.55
2023-02-15T20:36:48.109Z,13.85
2023-02-15T20:41:49.993Z,14.45
2023-02-15T20:46:54.753Z,15.13
2023-02-15T20:51:57.496Z,13.45
2023-02-15T20:56:59.501Z,13.48
2023-02-15T21:02:14.562Z,12.98
2023-02-15T21:07:18.592Z,12.20
2023-02-15T21:12:22.226Z,12.00
2023-02-15T21:17:24.211Z,12.65
2023-02-15T21:22:26.975Z,14.20
2023-02-15T21:27:29.103Z,14.55
2023-02-15T21:32:31.032Z,12.23
2023-02-15T21:37:35.661Z,12.00
2023-02-15T21:42:55.964Z,12.02
2023-02-15T21:47:57.831Z,10.70
2023-02-15T21:52:59.972Z,11.70
2023-02-15T21:58:02.256Z,11.27
2023-02-15T22:03:05.595Z,11.38
2023-02-15T22:08:13.296Z,11.65
2023-02-15T22:13:19.892Z,10.60
2023-02-15T22:18:24.868Z,10.95
2023-02-15T22:23:26.800Z,10.85
2023-02-15T22:28:33.896Z,11.88
2023-02-15T22:33:35.896Z,11.50
2023-02-15T22:38:37.724Z,11.23
2023-02-15T22:43:42.223Z,11.35
2023-02-15T22:48:47.461Z,11.57
2023-02-15T22:53:51.847Z,11.75
2023-02-15T22:59:02.587Z,11.43
2023-02-15T23:04:04.828Z,11.65
2023-02-15T23:09:06.650Z,11.45
2023-02-15T23:14:38.429Z,12.75
2023-02-15T23:19:40.318Z,11.68
2023-02-15T23:24:42.987Z,12.25
2023-02-15T23:29:44.837Z,12.13
2023-02-15T23:34:46.688Z,12.52
2023-02-15T23:40:06.981Z,12.52
2023-02-15T23:45:23.323Z,11.85
2023-02-15T23:50:27.488Z,11.48
2023-02-15T23:55:38.677Z,11.27
